createdAt,value
2019-02-17T00:01:55.530Z,101947.05
2019-02-17T00:04:23.796Z,101948.80
2019-02-17T00:06:52.054Z,101947.80
2019-02-17T00:09:20.564Z,101947.80
2019-02-17T00:11:48.824Z,101943.23
2019-02-17T00:14:17.092Z,101943.64
2019-02-17T00:16:45.345Z,101943.96
2019-02-17T00:19:13.623Z,101945.06
2019-02-17T00:21:41.895Z,101943.27
2019-02-17T00:24:10.157Z,101946.57
2019-02-17T00:26:38.422Z,101939.15
2019-02-17T00:29:06.670Z,101940.05
2019-02-17T00:31:34.936Z,101937.84
2019-02-17T00:34:03.213Z,101949.59
2019-02-17T00:36:31.461Z,101946.57
2019-02-17T00:38:59.724Z,101947.80
2019-02-17T00:41:27.994Z,101942.20
2019-02-17T00:43:56.256Z,101944.28
2019-02-17T00:46:24.510Z,101938.74
2019-02-17T00:48:52.791Z,101948.56
2019-02-17T00:51:21.044Z,101944.20
2019-02-17T00:53:49.315Z,101948.52
2019-02-17T00:56:17.576Z,101950.56
2019-02-17T00:58:45.828Z,101963.44
2019-02-17T01:01:14.111Z,101957.41
2019-02-17T01:03:42.380Z,101960.11
2019-02-17T01:06:10.636Z,101966.63
2019-02-17T01:08:38.920Z,101959.53
2019-02-17T01:11:07.180Z,101963.31
2019-02-17T01:13:35.466Z,101968.81
2019-02-17T01:16:03.725Z,101973.27
2019-02-17T01:18:32.007Z,101968.45
2019-02-17T01:21:00.276Z,101960.70
2019-02-17T01:23:28.537Z,101956.38
2019-02-17T01:25:56.789Z,101949.41
2019-02-17T01:28:25.054Z,101953.52
2019-02-17T01:30:53.327Z,101948.22
2019-02-17T01:33:21.583Z,101952.05
2019-02-17T01:35:49.852Z,101956.36
2019-02-17T01:38:18.123Z,101947.19
2019-02-17T01:40:46.380Z,101941.64
2019-02-17T01:43:14.663Z,101941.69
2019-02-17T01:45:42.933Z,101940.74
2019-02-17T01:48:11.218Z,101943.31
2019-02-17T01:50:39.492Z,101938.27
2019-02-17T01:53:07.749Z,101936.39
2019-02-17T01:55:36.029Z,101939.94
2019-02-17T01:58:04.302Z,101940.17
2019-02-17T02:00:32.567Z,101941.20
2019-02-17T02:03:01.543Z,101940.84
2019-02-17T02:05:29.811Z,101933.73
2019-02-17T02:07:58.079Z,101930.48
2019-02-17T02:10:26.351Z,101936.43
2019-02-17T02:12:54.608Z,101926.62
2019-02-17T02:15:22.891Z,101929.19
2019-02-17T02:17:51.151Z,101927.29
2019-02-17T02:20:19.423Z,101927.29
2019-02-17T02:22:47.702Z,101930.89
2019-02-17T02:25:15.971Z,101926.34
2019-02-17T02:27:44.230Z,101923.51
2019-02-17T02:30:13.665Z,101924.67
2019-02-17T02:32:41.936Z,101922.06
2019-02-17T02:35:10.218Z,101915.89
2019-02-17T02:37:38.473Z,101913.42
2019-02-17T02:40:07.833Z,101914.20
2019-02-17T02:42:36.087Z,101913.38
2019-02-17T02:45:06.509Z,101909.28
2019-02-17T02:47:34.768Z,101910.68
2019-02-17T02:50:03.026Z,101905.86
2019-02-17T02:52:31.311Z,101911.40
2019-02-17T02:54:59.583Z,101906.72
2019-02-17T02:57:27.855Z,101905.13
2019-02-17T02:59:56.113Z,101903.75
2019-02-17T03:02:24.373Z,101905.58
2019-02-17T03:04:52.639Z,101905.91
2019-02-17T03:07:20.977Z,101904.23
2019-02-17T03:09:49.238Z,101906.44
2019-02-17T03:12:17.504Z,101900.64
2019-02-17T03:14:45.774Z,101897.22
2019-02-17T03:17:14.059Z,101903.75
2019-02-17T03:19:42.301Z,101903.61
2019-02-17T03:22:10.590Z,101903.38
2019-02-17T03:24:38.865Z,101901.66
2019-02-17T03:27:07.141Z,101904.33
2019-02-17T03:29:35.411Z,101910.28
2019-02-17T03:32:03.682Z,101910.85
2019-02-17T03:34:31.942Z,101920.67
2019-02-17T03:37:00.224Z,101918.73
2019-02-17T03:39:28.467Z,101911.98
2019-02-17T03:41:56.723Z,101909.09
2019-02-17T03:44:24.986Z,101906.80
2019-02-17T03:46:53.265Z,101912.79
2019-02-17T03:49:21.533Z,101915.45
2019-02-17T03:51:49.809Z,101918.17
2019-02-17T03:54:18.077Z,101917.25
2019-02-17T03:56:46.345Z,101918.94
2019-02-17T03:59:14.619Z,101917.59
2019-02-17T04:01:42.942Z,101920.52
2019-02-17T04:04:11.151Z,101919.40
2019-02-17T04:06:39.406Z,101922.23
2019-02-17T04:09:07.979Z,101916.95
2019-02-17T04:11:36.307Z,101920.34
2019-02-17T04:14:04.578Z,101919.56
2019-02-17T04:16:32.851Z,101921.87
2019-02-17T04:19:01.145Z,101921.61
2019-02-17T04:21:29.414Z,101920.31
2019-02-17T04:23:57.699Z,101922.28
2019-02-17T04:26:25.981Z,101926.72
2019-02-17T04:28:54.260Z,101924.97
2019-02-17T04:31:22.534Z,101917.30
2019-02-17T04:33:50.788Z,101917.00
2019-02-17T04:36:19.049Z,101916.18
2019-02-17T04:38:47.326Z,101909.30
2019-02-17T04:41:15.581Z,101911.56
2019-02-17T04:43:43.848Z,101908.88
2019-02-17T04:46:12.111Z,101914.13
2019-02-17T04:48:40.371Z,101913.97
2019-02-17T04:51:08.635Z,101917.98
2019-02-17T04:53:36.911Z,101914.48
2019-02-17T04:56:05.169Z,101919.36
2019-02-17T04:58:33.446Z,101903.82
2019-02-17T05:01:01.718Z,101910.11
2019-02-17T05:03:29.985Z,101907.92
2019-02-17T05:05:58.263Z,101910.72
2019-02-17T05:08:26.524Z,101916.46
2019-02-17T05:10:54.813Z,101917.47
2019-02-17T05:13:23.083Z,101914.86
2019-02-17T05:15:51.320Z,101912.22
2019-02-17T05:18:19.588Z,101908.00
2019-02-17T05:20:47.861Z,101908.50
2019-02-17T05:23:16.137Z,101905.11
2019-02-17T05:25:44.426Z,101907.70
2019-02-17T05:28:12.704Z,101911.13
2019-02-17T05:30:52.246Z,101913.76
2019-02-17T05:33:10.977Z,101907.85
2019-02-17T05:35:39.255Z,101912.67
2019-02-17T05:38:07.515Z,101905.48
2019-02-17T05:40:36.536Z,101909.56
2019-02-17T05:43:05.026Z,101915.77
2019-02-17T05:45:33.304Z,101920.72
2019-02-17T05:48:01.582Z,101912.54
2019-02-17T05:50:29.939Z,101913.89
2019-02-17T05:52:58.207Z,101914.91
2019-02-17T05:55:26.489Z,101911.87
2019-02-17T05:57:54.758Z,101914.66
2019-02-17T06:00:24.713Z,101914.22
2019-02-17T06:02:52.960Z,101918.06
2019-02-17T06:05:21.226Z,101917.17
2019-02-17T06:07:49.489Z,101915.57
2019-02-17T06:10:17.751Z,101917.34
2019-02-17T06:12:46.029Z,101916.45
2019-02-17T06:15:14.290Z,101915.72
2019-02-17T06:17:42.566Z,101924.45
2019-02-17T06:20:11.394Z,101919.34
2019-02-17T06:22:39.648Z,101914.24
2019-02-17T06:25:07.939Z,101921.80
2019-02-17T06:27:36.200Z,101932.20
2019-02-17T06:30:06.089Z,101932.59
2019-02-17T06:32:34.348Z,101935.46
2019-02-17T06:35:02.624Z,101943.58
2019-02-17T06:37:30.877Z,101943.83
2019-02-17T06:39:59.171Z,101947.16
2019-02-17T06:42:27.447Z,101943.30
2019-02-17T06:44:55.734Z,101946.20
2019-02-17T06:47:25.677Z,101943.81
2019-02-17T06:49:53.899Z,101949.89
2019-02-17T06:52:22.163Z,101953.30
2019-02-17T06:54:52.095Z,101951.55
2019-02-17T06:57:22.000Z,101954.27
2019-02-17T06:59:51.915Z,101950.64
2019-02-17T07:02:20.172Z,101948.61
2019-02-17T07:05:07.871Z,101954.41
2019-02-17T07:07:36.125Z,101944.06
2019-02-17T07:10:05.231Z,101954.09
2019-02-17T07:12:33.501Z,101949.30
2019-02-17T07:15:02.594Z,101950.21
2019-02-17T07:17:30.861Z,101948.91
2019-02-17T07:19:59.125Z,101948.80
2019-02-17T07:22:27.403Z,101961.23
2019-02-17T07:24:55.663Z,101963.39
2019-02-17T07:27:23.926Z,101959.50
2019-02-17T07:29:52.193Z,101966.41
2019-02-17T07:32:20.464Z,101961.76
2019-02-17T07:34:48.734Z,101953.05
2019-02-17T07:37:19.267Z,101956.45
2019-02-17T07:39:46.984Z,101952.48
2019-02-17T07:42:15.347Z,101955.03
2019-02-17T07:44:43.631Z,101962.75
2019-02-17T07:47:11.874Z,101956.09
2019-02-17T07:49:40.144Z,101951.63
2019-02-17T07:52:08.474Z,101957.69
2019-02-17T07:54:36.758Z,101953.20
2019-02-17T07:57:05.025Z,101950.14
2019-02-17T07:59:33.286Z,101951.85
2019-02-17T08:02:01.560Z,101949.59
2019-02-17T08:04:29.839Z,101949.45
2019-02-17T08:06:58.109Z,101949.92
2019-02-17T08:09:26.380Z,101942.15
2019-02-17T08:11:54.634Z,101939.97
2019-02-17T08:14:22.924Z,101929.95
2019-02-17T08:16:51.190Z,101932.19
2019-02-17T08:19:19.450Z,101932.16
2019-02-17T08:21:47.702Z,101940.62
2019-02-17T08:24:15.961Z,101947.09
2019-02-17T08:26:44.230Z,101943.55
2019-02-17T08:29:12.500Z,101938.20
2019-02-17T08:31:40.766Z,101944.50
2019-02-17T08:34:09.046Z,101946.06
2019-02-17T08:36:37.302Z,101946.56
2019-02-17T08:39:06.155Z,101949.48
2019-02-17T08:41:34.404Z,101946.92
2019-02-17T08:44:02.666Z,101936.11
2019-02-17T08:46:30.915Z,101939.22
2019-02-17T08:48:59.209Z,101933.56
2019-02-17T08:51:27.485Z,101931.95
2019-02-17T08:53:55.725Z,101931.59
2019-02-17T08:56:23.997Z,101932.83
2019-02-17T08:58:52.266Z,101927.66
2019-02-17T09:01:20.532Z,101934.39
2019-02-17T09:03:48.785Z,101943.72
2019-02-17T09:06:17.709Z,101941.62
2019-02-17T09:08:45.963Z,101944.73
2019-02-17T09:11:14.229Z,101940.66
2019-02-17T09:13:42.492Z,101940.36
2019-02-17T09:16:10.760Z,101938.09
2019-02-17T09:18:39.017Z,101947.01
2019-02-17T09:21:07.294Z,101941.41
2019-02-17T09:23:35.562Z,101935.95
2019-02-17T09:26:03.864Z,101937.63
2019-02-17T09:28:32.124Z,101931.55
2019-02-17T09:31:00.392Z,101927.08
2019-02-17T09:33:28.666Z,101925.02
2019-02-17T09:35:56.934Z,101928.80
2019-02-17T09:38:25.193Z,101925.83
2019-02-17T09:40:53.486Z,101927.23
2019-02-17T09:43:21.716Z,101932.20
2019-02-17T09:45:49.983Z,101932.09
2019-02-17T09:48:18.242Z,101934.17
2019-02-17T09:50:46.522Z,101930.89
2019-02-17T09:53:14.784Z,101928.64
2019-02-17T09:55:43.055Z,101925.27
2019-02-17T09:58:12.106Z,101927.00
2019-02-17T10:00:40.356Z,101928.74
2019-02-17T10:03:08.640Z,101926.68
2019-02-17T10:05:36.906Z,101928.44
2019-02-17T10:08:05.178Z,101929.26
2019-02-17T10:10:33.447Z,101925.80
2019-02-17T10:13:01.703Z,101923.85
2019-02-17T10:15:30.020Z,101922.03
2019-02-17T10:17:58.249Z,101924.50
2019-02-17T10:20:26.525Z,101923.75
2019-02-17T10:22:54.809Z,101912.72
2019-02-17T10:25:23.069Z,101912.22
2019-02-17T10:27:51.338Z,101911.57
2019-02-17T10:30:19.683Z,101902.89
2019-02-17T10:32:47.965Z,101896.11
2019-02-17T10:35:16.242Z,101902.81
2019-02-17T10:37:44.509Z,101899.94
2019-02-17T10:40:15.680Z,101893.60
2019-02-17T10:42:43.971Z,101893.73
2019-02-17T10:45:12.486Z,101894.42
2019-02-17T10:47:40.769Z,101889.22
2019-02-17T10:50:13.124Z,101885.39
2019-02-17T10:52:41.399Z,101876.80
2019-02-17T10:55:11.612Z,101876.97
2019-02-17T10:57:39.879Z,101868.59
2019-02-17T11:00:17.382Z,101872.80
2019-02-17T11:02:47.478Z,101868.45
2019-02-17T11:05:15.722Z,101868.45
2019-02-17T11:07:44.008Z,101870.82
2019-02-17T11:10:13.012Z,101865.25
2019-02-17T11:12:41.293Z,101864.56
2019-02-17T11:15:15.661Z,101865.70
2019-02-17T11:17:43.962Z,101846.97
2019-02-17T11:20:12.474Z,101852.42
2019-02-17T11:22:40.744Z,101841.71
2019-02-17T11:25:09.096Z,101843.31
2019-02-17T11:27:37.376Z,101840.06
2019-02-17T11:30:14.570Z,101835.53
2019-02-17T11:32:42.835Z,101828.77
2019-02-17T11:35:11.105Z,101825.59
2019-02-17T11:37:39.377Z,101820.94
2019-02-17T11:40:10.211Z,101826.52
2019-02-17T11:42:38.457Z,101826.52
2019-02-17T11:45:12.519Z,101824.23
2019-02-17T11:47:40.769Z,101810.59
2019-02-17T11:50:09.782Z,101809.20
2019-02-17T11:52:38.061Z,101803.19
2019-02-17T11:55:09.469Z,101798.14
2019-02-17T11:57:37.728Z,101787.09
2019-02-17T12:00:17.710Z,101791.19
2019-02-17T12:02:46.072Z,101789.33
2019-02-17T12:05:14.509Z,101788.28
2019-02-17T12:07:42.782Z,101788.67
2019-02-17T12:10:11.527Z,101783.23
2019-02-17T12:12:39.964Z,101780.78
2019-02-17T12:15:13.238Z,101779.01
2019-02-17T12:17:41.511Z,101781.63
2019-02-17T12:20:29.597Z,101776.05
2019-02-17T12:22:59.517Z,101772.22
2019-02-17T12:25:29.420Z,101771.43
2019-02-17T12:28:08.266Z,101769.13
2019-02-17T12:30:37.474Z,101767.59
2019-02-17T12:33:05.747Z,101769.59
2019-02-17T12:35:34.019Z,101757.84
2019-02-17T12:38:02.302Z,101752.92
2019-02-17T12:40:30.571Z,101750.34
2019-02-17T12:42:58.842Z,101746.81
2019-02-17T12:45:27.135Z,101745.34
2019-02-17T12:47:58.375Z,101751.92
2019-02-17T12:50:25.438Z,101737.75
2019-02-17T12:52:53.707Z,101739.84
2019-02-17T12:55:21.983Z,101737.22
2019-02-17T12:57:50.258Z,101735.42
2019-02-17T13:00:18.531Z,101739.38
2019-02-17T13:02:47.097Z,101727.77
2019-02-17T13:05:15.365Z,101723.59
2019-02-17T13:07:43.623Z,101724.59
2019-02-17T13:10:12.523Z,101721.28
2019-02-17T13:12:40.785Z,101706.78
2019-02-17T13:15:13.184Z,101716.75
2019-02-17T13:17:41.477Z,101712.81
2019-02-17T13:20:13.680Z,101711.26
2019-02-17T13:22:41.965Z,101708.56
2019-02-17T13:25:14.917Z,101697.91
2019-02-17T13:27:43.192Z,101705.55
2019-02-17T13:30:17.210Z,101689.61
2019-02-17T13:32:45.480Z,101695.18
2019-02-17T13:35:13.753Z,101692.44
2019-02-17T13:37:42.025Z,101687.92
2019-02-17T13:40:12.459Z,101685.20
2019-02-17T13:42:40.735Z,101680.41
2019-02-17T13:45:12.185Z,101679.31
2019-02-17T13:47:40.457Z,101685.45
2019-02-17T13:50:14.504Z,101676.69
2019-02-17T13:52:42.767Z,101675.22
2019-02-17T13:55:11.097Z,101675.70
2019-02-17T13:57:39.387Z,101676.22
2019-02-17T14:00:13.159Z,101683.56
2019-02-17T14:02:41.442Z,101686.66
2019-02-17T14:05:09.769Z,101688.91
2019-02-17T14:07:38.038Z,101679.94
2019-02-17T14:10:09.141Z,101682.27
2019-02-17T14:12:37.420Z,101674.68
2019-02-17T14:15:11.787Z,101676.39
2019-02-17T14:17:40.053Z,101667.53
2019-02-17T14:20:09.966Z,101667.25
2019-02-17T14:22:38.237Z,101667.56
2019-02-17T14:25:10.710Z,101660.66
2019-02-17T14:27:38.348Z,101663.59
2019-02-17T14:30:14.199Z,101655.45
2019-02-17T14:32:42.481Z,101655.78
2019-02-17T14:35:10.747Z,101656.33
2019-02-17T14:37:40.020Z,101643.73
2019-02-17T14:40:12.653Z,101642.27
2019-02-17T14:42:40.947Z,101636.74
2019-02-17T14:45:15.916Z,101641.30
2019-02-17T14:47:44.200Z,101634.19
2019-02-17T14:50:12.817Z,101629.36
2019-02-17T14:52:41.092Z,101630.25
2019-02-17T14:55:11.376Z,101625.15
2019-02-17T14:57:39.642Z,101621.86
2019-02-17T15:00:13.100Z,101617.77
2019-02-17T15:02:41.346Z,101619.54
2019-02-17T15:05:10.348Z,101615.22
2019-02-17T15:07:38.626Z,101617.45
2019-02-17T15:10:09.338Z,101618.03
2019-02-17T15:12:37.611Z,101615.06
2019-02-17T15:15:16.276Z,101610.42
2019-02-17T15:17:44.549Z,101606.87
2019-02-17T15:20:15.525Z,101609.58
2019-02-17T15:22:43.775Z,101609.11
2019-02-17T15:25:12.336Z,101608.38
2019-02-17T15:27:40.631Z,101616.59
2019-02-17T15:30:13.572Z,101618.53
2019-02-17T15:32:41.936Z,101618.07
2019-02-17T15:35:10.206Z,101616.06
2019-02-17T15:37:38.544Z,101614.29
2019-02-17T15:40:11.775Z,101611.73
2019-02-17T15:42:40.127Z,101609.25
2019-02-17T15:45:14.522Z,101615.09
2019-02-17T15:47:42.876Z,101613.23
2019-02-17T15:50:12.292Z,101607.14
2019-02-17T15:52:40.547Z,101598.95
2019-02-17T15:55:10.767Z,101598.52
2019-02-17T15:57:39.058Z,101596.44
2019-02-17T16:00:13.394Z,101597.19
2019-02-17T16:02:41.698Z,101593.92
2019-02-17T16:05:10.359Z,101592.36
2019-02-17T16:07:38.657Z,101599.80
2019-02-17T16:10:09.668Z,101598.80
2019-02-17T16:12:37.944Z,101591.47
2019-02-17T16:15:14.311Z,101594.81
2019-02-17T16:17:42.584Z,101582.91
2019-02-17T16:20:12.714Z,101590.37
2019-02-17T16:22:40.977Z,101593.60
2019-02-17T16:25:10.381Z,101593.02
2019-02-17T16:27:38.653Z,101591.22
2019-02-17T16:30:10.109Z,101579.89
2019-02-17T16:32:38.401Z,101580.05
2019-02-17T16:35:07.247Z,101584.89
2019-02-17T16:37:35.513Z,101575.86
2019-02-17T16:40:04.112Z,101574.31
2019-02-17T16:42:32.394Z,101586.16
2019-02-17T16:45:00.981Z,101582.94
2019-02-17T16:47:29.420Z,101583.05
2019-02-17T16:49:57.685Z,101593.13
2019-02-17T16:52:25.987Z,101592.86
2019-02-17T16:54:54.259Z,101585.22
2019-02-17T16:57:22.536Z,101591.39
2019-02-17T16:59:50.809Z,101589.50
2019-02-17T17:02:19.095Z,101589.93
2019-02-17T17:04:48.926Z,101595.23
2019-02-17T17:07:17.240Z,101590.27
2019-02-17T17:09:45.519Z,101592.94
2019-02-17T17:12:13.813Z,101600.40
2019-02-17T17:14:42.093Z,101589.20
2019-02-17T17:17:10.382Z,101588.41
2019-02-17T17:19:38.665Z,101587.78
2019-02-17T17:22:06.930Z,101587.29
2019-02-17T17:24:35.210Z,101587.41
2019-02-17T17:27:03.552Z,101589.67
2019-02-17T17:29:31.825Z,101588.95
2019-02-17T17:32:00.090Z,101592.47
2019-02-17T17:34:28.374Z,101589.02
2019-02-17T17:36:56.669Z,101595.88
2019-02-17T17:39:24.959Z,101595.26
2019-02-17T17:41:53.224Z,101591.23
2019-02-17T17:44:21.495Z,101590.75
2019-02-17T17:46:49.770Z,101590.74
2019-02-17T17:49:19.499Z,101592.92
2019-02-17T17:51:47.896Z,101589.45
2019-02-17T17:54:16.184Z,101588.75
2019-02-17T17:56:44.444Z,101587.78
2019-02-17T17:59:12.708Z,101591.56
2019-02-17T18:01:40.977Z,101592.63
2019-02-17T18:04:09.248Z,101598.72
2019-02-17T18:06:37.526Z,101592.95
2019-02-17T18:09:06.484Z,101592.27
2019-02-17T18:11:34.749Z,101592.56
2019-02-17T18:14:02.994Z,101591.97
2019-02-17T18:16:31.260Z,101595.17
2019-02-17T18:18:59.524Z,101593.36
2019-02-17T18:21:27.799Z,101591.61
2019-02-17T18:23:56.068Z,101590.52
2019-02-17T18:26:24.325Z,101592.22
2019-02-17T18:28:52.608Z,101603.02
2019-02-17T18:31:20.888Z,101598.73
2019-02-17T18:33:49.179Z,101596.88
2019-02-17T18:36:17.493Z,101594.02
2019-02-17T18:38:45.740Z,101592.95
2019-02-17T18:41:14.003Z,101598.92
2019-02-17T18:43:42.767Z,101601.45
2019-02-17T18:46:11.100Z,101600.14
2019-02-17T18:48:39.354Z,101599.94
2019-02-17T18:51:07.623Z,101601.77
2019-02-17T18:53:35.878Z,101596.77
2019-02-17T18:56:04.141Z,101595.22
2019-02-17T18:58:32.409Z,101597.97
2019-02-17T19:01:00.680Z,101595.86
2019-02-17T19:03:29.031Z,101597.67
2019-02-17T19:05:57.292Z,101601.32
2019-02-17T19:08:25.548Z,101600.19
2019-02-17T19:10:53.808Z,101593.05
2019-02-17T19:13:22.063Z,101595.97
2019-02-17T19:15:50.330Z,101574.45
2019-02-17T19:18:18.594Z,101585.23
2019-02-17T19:20:46.875Z,101574.45
2019-02-17T19:23:15.145Z,101575.07
2019-02-17T19:25:43.412Z,101570.99
2019-02-17T19:28:11.669Z,101572.35
2019-02-17T19:30:39.929Z,101564.80
2019-02-17T19:33:08.181Z,101565.56
2019-02-17T19:35:41.919Z,101567.54
2019-02-17T19:38:06.468Z,101565.38
2019-02-17T19:40:34.723Z,101562.69
2019-02-17T19:43:03.621Z,101562.63
2019-02-17T19:45:31.923Z,101568.93
2019-02-17T19:48:00.178Z,101570.19
2019-02-17T19:50:28.429Z,101573.83
2019-02-17T19:52:56.678Z,101570.73
2019-02-17T19:55:24.930Z,101565.77
2019-02-17T19:57:53.188Z,101570.20
2019-02-17T20:00:22.182Z,101561.28
2019-02-17T20:03:08.273Z,101560.74
2019-02-17T20:05:38.164Z,101562.49
2019-02-17T20:08:06.424Z,101559.95
2019-02-17T20:10:34.689Z,101562.08
2019-02-17T20:13:02.957Z,101560.70
2019-02-17T20:15:33.096Z,101552.81
2019-02-17T20:18:01.372Z,101551.30
2019-02-17T20:20:29.651Z,101541.50
2019-02-17T20:22:57.935Z,101530.59
2019-02-17T20:25:26.205Z,101538.42
2019-02-17T20:27:54.473Z,101539.31
2019-02-17T20:30:22.760Z,101541.06
2019-02-17T20:32:51.038Z,101539.72
2019-02-17T20:35:19.300Z,101530.12
2019-02-17T20:37:47.584Z,101538.98
2019-02-17T20:40:17.197Z,101536.15
2019-02-17T20:42:45.468Z,101536.47
2019-02-17T20:45:13.811Z,101536.87
2019-02-17T20:47:42.582Z,101531.51
2019-02-17T20:50:13.266Z,101534.34
2019-02-17T20:52:41.541Z,101534.43
2019-02-17T20:55:11.440Z,101527.02
2019-02-17T20:57:40.022Z,101525.67
2019-02-17T21:00:15.587Z,101516.26
2019-02-17T21:02:43.849Z,101516.26
2019-02-17T21:05:12.120Z,101524.80
2019-02-17T21:07:40.387Z,101523.05
2019-02-17T21:10:12.578Z,101528.11
2019-02-17T21:12:40.848Z,101532.00
2019-02-17T21:15:11.215Z,101533.34
2019-02-17T21:17:39.952Z,101535.16
2019-02-17T21:20:09.675Z,101537.56
2019-02-17T21:22:37.941Z,101543.66
2019-02-17T21:25:11.094Z,101544.92
2019-02-17T21:27:39.353Z,101543.84
2019-02-17T21:30:19.905Z,101549.24
2019-02-17T21:32:48.185Z,101543.64
2019-02-17T21:35:17.072Z,101545.14
2019-02-17T21:37:45.346Z,101548.39
2019-02-17T21:40:14.152Z,101545.34
2019-02-17T21:42:42.425Z,101548.08
2019-02-17T21:45:16.832Z,101539.88
2019-02-17T21:47:45.088Z,101536.88
2019-02-17T21:50:14.093Z,101527.41
2019-02-17T21:52:42.595Z,101529.77
2019-02-17T21:55:14.032Z,101528.94
2019-02-17T21:57:42.312Z,101533.31
2019-02-17T22:00:20.360Z,101544.20
2019-02-17T22:02:48.696Z,101539.97
2019-02-17T22:05:16.968Z,101533.85
2019-02-17T22:07:45.229Z,101532.59
2019-02-17T22:10:20.035Z,101534.45
2019-02-17T22:12:50.932Z,101534.87
2019-02-17T22:15:19.722Z,101540.06
2019-02-17T22:17:48.005Z,101534.69
2019-02-17T22:20:16.268Z,101535.19
2019-02-17T22:22:44.535Z,101540.03
2019-02-17T22:25:14.325Z,101540.56
2019-02-17T22:27:42.593Z,101535.41
2019-02-17T22:30:12.762Z,101539.48
2019-02-17T22:32:41.025Z,101540.36
2019-02-17T22:35:09.555Z,101532.64
2019-02-17T22:37:37.844Z,101526.06
2019-02-17T22:40:11.449Z,101524.39
2019-02-17T22:42:39.724Z,101533.97
2019-02-17T22:45:09.935Z,101529.28
2019-02-17T22:47:38.189Z,101531.87
2019-02-17T22:50:09.767Z,101527.52
2019-02-17T22:52:38.020Z,101518.84
2019-02-17T22:55:09.099Z,101519.91
2019-02-17T22:57:37.358Z,101520.47
2019-02-17T23:00:26.586Z,101513.14
2019-02-17T23:02:54.863Z,101515.46
2019-02-17T23:05:23.148Z,101522.03
2019-02-17T23:07:51.428Z,101527.16
2019-02-17T23:10:19.707Z,101526.75
2019-02-17T23:12:47.977Z,101521.95
2019-02-17T23:15:16.250Z,101524.19
2019-02-17T23:17:44.545Z,101526.28
2019-02-17T23:20:13.650Z,101521.00
2019-02-17T23:22:41.932Z,101522.42
2019-02-17T23:25:10.189Z,101515.96
2019-02-17T23:27:38.470Z,101523.41
2019-02-17T23:30:08.876Z,101519.97
2019-02-17T23:32:37.151Z,101519.72
2019-02-17T23:35:05.993Z,101520.22
2019-02-17T23:37:34.273Z,101518.13
2019-02-17T23:40:02.517Z,101519.06
2019-02-17T23:42:30.773Z,101517.41
2019-02-17T23:44:59.055Z,101520.52
2019-02-17T23:47:27.317Z,101516.58
2019-02-17T23:49:55.579Z,101517.16
2019-02-17T23:52:23.849Z,101519.74
2019-02-17T23:54:52.107Z,101514.97
2019-02-17T23:57:20.376Z,101518.01
2019-02-17T23:59:48.630Z,101521.45
